createdAt,value
2023-02-08T00:02:30.124Z,-0.98
2023-02-08T00:06:31.078Z,-0.99
2023-02-08T00:10:29.067Z,-0.99
2023-02-08T00:14:27.021Z,-1.00
2023-02-08T00:18:25.082Z,-1.02
2023-02-08T00:22:27.088Z,-1.04
2023-02-08T00:26:25.070Z,-1.03
2023-02-08T00:30:24.033Z,-1.02
2023-02-08T00:34:23.122Z,-0.98
2023-02-08T00:38:21.055Z,-0.95
2023-02-08T00:42:19.030Z,-0.94
2023-02-08T00:46:17.159Z,-0.92
2023-02-08T00:50:17.029Z,-0.89
2023-02-08T00:54:14.983Z,-0.86
2023-02-08T00:58:13.089Z,-0.85
2023-02-08T01:02:11.066Z,-0.89
2023-02-08T01:06:08.957Z,-0.93
2023-02-08T01:10:06.952Z,-0.95
2023-02-08T01:14:06.000Z,-0.94
2023-02-08T01:18:11.933Z,-0.95
2023-02-08T01:22:12.030Z,-0.93
2023-02-08T01:26:10.017Z,-0.93
2023-02-08T01:30:10.962Z,-0.96
2023-02-08T01:34:08.937Z,-0.98
2023-02-08T01:38:11.024Z,-0.93
2023-02-08T01:42:10.926Z,-0.91
2023-02-08T01:46:10.069Z,-0.88
2023-02-08T01:50:07.945Z,-0.88
2023-02-08T01:54:07.909Z,-0.89
2023-02-08T01:58:09.864Z,-0.86
2023-02-08T02:02:10.921Z,-0.79
2023-02-08T02:06:15.919Z,-0.72
2023-02-08T02:10:23.884Z,-0.65
2023-02-08T02:14:22.914Z,-0.75
2023-02-08T02:18:22.945Z,-0.84
2023-02-08T02:22:44.911Z,-0.88
2023-02-08T02:27:26.905Z,-0.94
2023-02-08T02:31:51.881Z,-0.98
2023-02-08T02:36:02.851Z,-0.98
2023-02-08T02:40:36.916Z,-1.00
2023-02-08T02:44:48.941Z,-1.03
2023-02-08T02:49:10.852Z,-1.11
2023-02-08T02:53:24.860Z,-1.13
2023-02-08T02:57:27.840Z,-1.09
2023-02-08T03:01:28.974Z,-1.08
2023-02-08T03:05:28.793Z,-1.13
2023-02-08T03:10:01.811Z,-1.11
2023-02-08T03:14:17.819Z,-1.04
2023-02-08T03:18:24.823Z,-0.95
2023-02-08T03:22:37.786Z,-0.88
2023-02-08T03:26:49.823Z,-0.77
2023-02-08T03:31:01.890Z,-0.73
2023-02-08T03:35:19.889Z,-0.74
2023-02-08T03:39:22.781Z,-0.76
2023-02-08T03:43:35.773Z,-0.78
2023-02-08T03:47:42.796Z,-0.79
2023-02-08T03:51:51.292Z,-0.78
2023-02-08T03:55:50.758Z,-0.77
2023-02-08T03:59:54.779Z,-0.68
2023-02-08T04:04:08.745Z,-0.69
2023-02-08T04:08:06.784Z,-0.69
2023-02-08T04:12:04.718Z,-0.69
2023-02-08T04:16:02.778Z,-0.70
2023-02-08T04:20:00.736Z,-0.73
2023-02-08T04:23:58.747Z,-0.77
2023-02-08T04:27:56.882Z,-0.78
2023-02-08T04:31:55.859Z,-0.78
2023-02-08T04:35:53.685Z,-0.81
2023-02-08T04:39:51.746Z,-0.83
2023-02-08T04:43:50.681Z,-0.87
2023-02-08T04:47:48.730Z,-0.87
2023-02-08T04:51:46.650Z,-0.84
2023-02-08T04:55:45.820Z,-0.79
2023-02-08T04:59:50.757Z,-0.70
2023-02-08T05:03:48.739Z,-0.67
2023-02-08T05:07:46.923Z,-0.64
2023-02-08T05:11:45.845Z,-0.55
2023-02-08T05:15:49.661Z,-0.42
2023-02-08T05:19:47.792Z,-0.30
2023-02-08T05:23:46.830Z,-0.14
2023-02-08T05:27:48.705Z,-0.06
2023-02-08T05:31:46.696Z,0.01
2023-02-08T05:35:44.657Z,0.10
2023-02-08T05:39:42.719Z,0.14
2023-02-08T05:43:40.628Z,0.18
2023-02-08T05:47:38.675Z,0.17
2023-02-08T05:51:37.571Z,0.15
2023-02-08T05:55:38.628Z,0.10
2023-02-08T05:59:36.637Z,0.01
2023-02-08T06:03:36.634Z,-0.02
2023-02-08T06:07:36.595Z,-0.12
2023-02-08T06:11:34.522Z,-0.12
2023-02-08T06:15:32.616Z,-0.16
2023-02-08T06:19:30.510Z,-0.23
2023-02-08T06:23:28.545Z,-0.35
2023-02-08T06:27:27.575Z,-0.29
2023-02-08T06:31:25.617Z,-0.34
2023-02-08T06:35:23.542Z,-0.39
2023-02-08T06:39:24.754Z,-0.48
2023-02-08T06:43:15.709Z,-0.54
2023-02-08T06:47:13.527Z,-0.49
2023-02-08T06:51:11.461Z,-0.35
2023-02-08T06:55:09.541Z,-0.30
2023-02-08T06:59:07.480Z,-0.24
2023-02-08T07:02:47.410Z,-0.27
2023-02-08T07:06:19.242Z,-0.25
2023-02-08T07:09:44.297Z,-0.21
2023-02-08T07:13:08.402Z,-0.28
2023-02-08T07:16:32.626Z,-0.21
2023-02-08T07:19:57.116Z,-0.13
2023-02-08T07:23:21.201Z,-0.05
2023-02-08T07:26:45.075Z,-0.02
2023-02-08T07:30:10.115Z,0.09
2023-02-08T07:33:34.275Z,0.22
2023-02-08T07:36:58.291Z,0.35
2023-02-08T07:40:22.340Z,0.41
2023-02-08T07:43:46.499Z,0.53
2023-02-08T07:47:11.028Z,0.66
2023-02-08T07:50:35.210Z,0.75
2023-02-08T07:53:59.266Z,0.83
2023-02-08T07:57:24.809Z,0.95
2023-02-08T08:00:48.605Z,1.02
2023-02-08T08:04:14.107Z,1.15
2023-02-08T08:07:38.494Z,1.11
2023-02-08T08:11:03.876Z,1.08
2023-02-08T08:14:28.201Z,1.15
2023-02-08T08:17:52.126Z,1.14
2023-02-08T08:21:17.862Z,1.15
2023-02-08T08:24:42.127Z,1.13
2023-02-08T08:28:07.512Z,1.05
2023-02-08T08:31:32.060Z,1.00
2023-02-08T08:34:56.092Z,1.02
2023-02-08T08:38:19.997Z,1.07
2023-02-08T08:41:43.981Z,1.23
2023-02-08T08:45:09.499Z,1.37
2023-02-08T08:48:35.536Z,1.52
2023-02-08T08:51:59.721Z,1.66
2023-02-08T08:55:23.608Z,1.65
2023-02-08T08:58:47.548Z,1.59
2023-02-08T09:02:17.878Z,1.48
2023-02-08T09:05:42.475Z,1.53
2023-02-08T09:09:07.311Z,1.62
2023-02-08T09:12:31.466Z,1.81
2023-02-08T09:15:55.293Z,1.99
2023-02-08T09:19:19.309Z,2.13
2023-02-08T09:22:43.204Z,2.22
2023-02-08T09:26:09.702Z,2.30
2023-02-08T09:29:34.469Z,2.41
2023-02-08T09:32:58.439Z,2.49
2023-02-08T09:36:25.692Z,2.52
2023-02-08T09:39:49.677Z,2.66
2023-02-08T09:43:27.649Z,2.78
2023-02-08T09:47:30.643Z,2.91
2023-02-08T09:51:04.171Z,2.92
2023-02-08T09:54:37.531Z,2.94
2023-02-08T09:58:05.854Z,2.88
2023-02-08T10:01:34.003Z,2.84
2023-02-08T10:05:11.649Z,2.79
2023-02-08T10:08:37.262Z,2.59
2023-02-08T10:12:13.120Z,2.58
2023-02-08T10:15:48.708Z,2.57
2023-02-08T10:19:28.418Z,2.68
2023-02-08T10:23:15.866Z,2.82
2023-02-08T10:26:47.520Z,2.97
2023-02-08T10:30:30.770Z,3.15
2023-02-08T10:34:07.472Z,3.31
2023-02-08T10:37:35.601Z,3.47
2023-02-08T10:41:02.636Z,3.56
2023-02-08T10:44:55.706Z,3.59
2023-02-08T10:48:33.116Z,3.42
2023-02-08T10:51:58.247Z,3.42
2023-02-08T10:55:22.772Z,3.48
2023-02-08T10:58:46.864Z,3.59
2023-02-08T11:02:23.764Z,3.27
2023-02-08T11:05:47.808Z,3.11
2023-02-08T11:09:32.230Z,3.20
2023-02-08T11:13:19.315Z,3.36
2023-02-08T11:16:44.117Z,3.13
2023-02-08T11:20:09.621Z,2.81
2023-02-08T11:23:37.374Z,2.71
2023-02-08T11:27:02.661Z,2.73
2023-02-08T11:30:26.930Z,2.82
2023-02-08T11:34:20.518Z,2.78
2023-02-08T11:37:58.532Z,2.84
2023-02-08T11:41:23.700Z,2.76
2023-02-08T11:44:48.947Z,2.67
2023-02-08T11:48:31.697Z,2.77
2023-02-08T11:51:56.457Z,3.05
2023-02-08T11:55:20.710Z,3.37
2023-02-08T11:58:58.091Z,3.55
2023-02-08T12:02:40.099Z,3.45
2023-02-08T12:06:29.042Z,3.40
2023-02-08T12:10:14.072Z,3.64
2023-02-08T12:13:55.299Z,3.75
2023-02-08T12:17:44.054Z,3.80
2023-02-08T12:21:29.613Z,3.80
2023-02-08T12:25:19.577Z,3.88
2023-02-08T12:29:05.057Z,4.14
2023-02-08T12:32:59.300Z,4.35
2023-02-08T12:37:25.213Z,4.37
2023-02-08T12:41:15.060Z,4.42
2023-02-08T12:44:48.833Z,4.63
2023-02-08T12:48:31.865Z,4.74
2023-02-08T12:52:22.803Z,4.77
2023-02-08T12:55:50.002Z,4.57
2023-02-08T12:59:35.428Z,4.65
2023-02-08T13:03:27.092Z,4.77
2023-02-08T13:06:59.786Z,4.69
2023-02-08T13:10:32.742Z,4.84
2023-02-08T13:14:05.830Z,5.09
2023-02-08T13:17:37.705Z,5.21
2023-02-08T13:21:08.094Z,5.22
2023-02-08T13:24:40.969Z,5.18
2023-02-08T13:28:20.368Z,5.15
2023-02-08T13:31:49.725Z,5.03
2023-02-08T13:35:30.305Z,4.87
2023-02-08T13:38:55.059Z,4.70
2023-02-08T13:42:31.942Z,4.64
2023-02-08T13:46:00.500Z,4.65
2023-02-08T13:49:55.498Z,4.80
2023-02-08T13:53:41.812Z,4.82
2023-02-08T13:57:44.520Z,4.63
2023-02-08T14:01:13.111Z,4.60
2023-02-08T14:04:39.207Z,4.52
2023-02-08T14:08:06.156Z,4.32
2023-02-08T14:11:43.606Z,4.05
2023-02-08T14:15:16.426Z,3.72
2023-02-08T14:18:40.775Z,3.28
2023-02-08T14:22:18.380Z,2.99
2023-02-08T14:25:49.111Z,2.64
2023-02-08T14:29:24.180Z,2.21
2023-02-08T14:33:19.972Z,1.81
2023-02-08T14:37:25.939Z,1.66
2023-02-08T14:41:23.921Z,1.57
2023-02-08T14:45:50.885Z,1.56
2023-02-08T14:49:55.862Z,1.48
2023-02-08T14:53:57.007Z,1.13
2023-02-08T14:57:55.883Z,0.76
2023-02-08T15:02:02.889Z,0.52
2023-02-08T15:06:21.807Z,0.47
2023-02-08T15:10:26.936Z,0.43
2023-02-08T15:14:33.833Z,0.36
2023-02-08T15:18:38.833Z,0.26
2023-02-08T15:22:38.848Z,0.21
2023-02-08T15:26:37.902Z,-0.05
2023-02-08T15:30:44.113Z,-0.21
2023-02-08T15:34:42.835Z,-0.23
2023-02-08T15:38:40.799Z,-0.24
2023-02-08T15:42:41.806Z,-0.27
2023-02-08T15:46:41.870Z,-0.46
2023-02-08T15:50:40.886Z,-0.59
2023-02-08T15:54:40.805Z,-0.79
2023-02-08T15:58:52.822Z,-1.10
2023-02-08T16:02:51.783Z,-1.27
2023-02-08T16:06:54.919Z,-1.34
2023-02-08T16:11:00.882Z,-1.39
2023-02-08T16:14:58.858Z,-1.41
2023-02-08T16:18:59.805Z,-1.43
2023-02-08T16:23:10.733Z,-1.44
2023-02-08T16:27:14.912Z,-1.51
2023-02-08T16:31:19.994Z,-1.54
2023-02-08T16:35:40.899Z,-1.53
2023-02-08T16:39:53.768Z,-1.55
2023-02-08T16:43:56.693Z,-1.59
2023-02-08T16:48:01.915Z,-1.68
2023-02-08T16:52:04.736Z,-1.77
2023-02-08T16:56:02.819Z,-1.82
2023-02-08T17:00:03.735Z,-1.89
2023-02-08T17:04:01.824Z,-1.91
2023-02-08T17:08:00.745Z,-1.90
2023-02-08T17:11:59.715Z,-1.97
2023-02-08T17:15:57.888Z,-2.00
2023-02-08T17:19:57.876Z,-2.04
2023-02-08T17:23:56.673Z,-2.12
2023-02-08T17:27:54.696Z,-2.18
2023-02-08T17:31:56.588Z,-2.18
2023-02-08T17:35:54.654Z,-2.16
2023-02-08T17:39:52.785Z,-2.15
2023-02-08T17:43:50.758Z,-2.23
2023-02-08T17:47:49.749Z,-2.28
2023-02-08T17:51:47.640Z,-2.32
2023-02-08T17:55:46.203Z,-2.25
2023-02-08T17:59:44.707Z,-2.25
2023-02-08T18:03:42.817Z,-2.28
2023-02-08T18:07:40.654Z,-2.31
2023-02-08T18:11:38.627Z,-2.34
2023-02-08T18:15:39.762Z,-2.36
2023-02-08T18:19:37.685Z,-2.44
2023-02-08T18:23:35.652Z,-2.54
2023-02-08T18:27:33.550Z,-2.65
2023-02-08T18:31:33.694Z,-2.70
2023-02-08T18:35:31.579Z,-2.75
2023-02-08T18:39:29.620Z,-2.74
2023-02-08T18:43:27.676Z,-2.77
2023-02-08T18:47:25.788Z,-2.83
2023-02-08T18:51:27.620Z,-2.81
2023-02-08T18:55:25.620Z,-2.90
2023-02-08T18:59:23.593Z,-2.90
2023-02-08T19:03:24.686Z,-3.00
2023-02-08T19:07:22.655Z,-3.15
2023-02-08T19:11:29.620Z,-3.17
2023-02-08T19:15:27.696Z,-3.21
2023-02-08T19:19:25.582Z,-3.24
2023-02-08T19:23:23.553Z,-3.28
2023-02-08T19:27:21.746Z,-3.37
2023-02-08T19:31:27.674Z,-3.42
2023-02-08T19:35:26.544Z,-3.42
2023-02-08T19:39:28.522Z,-3.37
2023-02-08T19:43:26.723Z,-3.38
2023-02-08T19:47:32.327Z,-3.44
2023-02-08T19:51:37.501Z,-3.54
2023-02-08T19:55:35.665Z,-3.55
2023-02-08T19:59:38.545Z,-3.60
2023-02-08T20:03:36.671Z,-3.58
2023-02-08T20:07:34.625Z,-3.60
2023-02-08T20:11:45.041Z,-3.63
2023-02-08T20:15:53.439Z,-3.74
2023-02-08T20:19:53.426Z,-3.74
2023-02-08T20:23:51.448Z,-3.69
2023-02-08T20:27:51.001Z,-3.77
2023-02-08T20:31:50.872Z,-3.79
2023-02-08T20:35:51.430Z,-3.93
2023-02-08T20:39:50.401Z,-4.08
2023-02-08T20:43:49.365Z,-4.10
2023-02-08T20:47:52.502Z,-4.14
2023-02-08T20:51:50.433Z,-4.14
2023-02-08T20:55:48.428Z,-4.12
2023-02-08T20:59:47.451Z,-4.13
2023-02-08T21:03:45.431Z,-4.20
2023-02-08T21:07:47.416Z,-4.30
2023-02-08T21:11:46.503Z,-4.30
2023-02-08T21:15:44.338Z,-4.31
2023-02-08T21:19:44.326Z,-4.30
2023-02-08T21:23:42.398Z,-4.25
2023-02-08T21:27:40.412Z,-4.21
2023-02-08T21:31:39.403Z,-4.20
2023-02-08T21:35:38.416Z,-4.15
2023-02-08T21:39:36.425Z,-4.10
2023-02-08T21:43:34.310Z,-4.16
2023-02-08T21:47:32.301Z,-4.21
2023-02-08T21:51:48.322Z,-4.21
2023-02-08T21:55:46.279Z,-4.21
2023-02-08T21:59:46.336Z,-4.29
2023-02-08T22:03:44.259Z,-4.33
2023-02-08T22:07:43.293Z,-4.43
2023-02-08T22:11:41.247Z,-4.56
2023-02-08T22:15:41.259Z,-4.64
2023-02-08T22:19:39.241Z,-4.71
2023-02-08T22:23:37.212Z,-4.76
2023-02-08T22:27:36.199Z,-4.77
2023-02-08T22:31:34.530Z,-4.82
2023-02-08T22:35:34.177Z,-4.75
2023-02-08T22:39:32.298Z,-4.84
2023-02-08T22:43:30.325Z,-4.81
2023-02-08T22:47:28.208Z,-4.70
2023-02-08T22:51:30.179Z,-4.70
2023-02-08T22:55:28.198Z,-4.63
2023-02-08T22:59:28.487Z,-4.62
2023-02-08T23:03:27.258Z,-4.69
2023-02-08T23:07:25.141Z,-4.69
2023-02-08T23:11:25.271Z,-4.74
2023-02-08T23:15:25.216Z,-4.87
2023-02-08T23:19:27.401Z,-4.85
2023-02-08T23:23:25.130Z,-4.96
2023-02-08T23:27:23.139Z,-5.08
2023-02-08T23:31:22.324Z,-5.20
2023-02-08T23:35:20.225Z,-5.26
2023-02-08T23:39:18.200Z,-5.34
2023-02-08T23:43:18.130Z,-5.48
2023-02-08T23:47:16.123Z,-5.50
2023-02-08T23:51:22.136Z,-5.60
2023-02-08T23:55:21.558Z,-5.64
2023-02-08T23:59:19.166Z,-5.70
